Latest Weather Observations for Paraburdoo

IDW60801

Issued at 9:05 pm WST Tuesday 16 September 2014 (issued every 30 minutes, with the page automatically refreshed every 10 minutes)

About weather observations | Map of weather stations | Latest weather observations for WA | Other Formats
Station Details ID: 007185 Name: PARABURDOO AERO Lat: -23.17 Lon: 117.75 Height: 423.7 m
Data from the previous 72 hours. | See also: Recent months at Paraburdoo
Date/Time
WST
Temp
°C
App
Temp
°C
Dew
Point
Rel
Hum
%
Delta-T
°C
Wind Press
QNH
hPa
Press
MSL
hPa
Rain
since 9 am
mm
Dir
 
Spd
km/h
Gust
km/h
Spd
kts
Gust
kts
16/09:00pm 27.6 23.1 -0.5 16 13.3 W 13 17 7 9 1014.0 1012.0 0.0
16/08:30pm 27.3 23.8 -2.5 14 13.6 SW 6 7 3 4 1013.6 1011.6 0.0
16/08:00pm 29.0 25.0 -2.2 13 14.5 SSW 9 11 5 6 1012.9 1011.0 0.0
16/07:30pm 29.9 25.5 -2.6 12 15.1 SW 11 15 6 8 1012.5 1010.6 0.0
16/07:00pm 30.7 25.8 -3.1 11 15.7 WSW 13 20 7 11 1011.9 1009.9 0.0
16/06:30pm 31.6 25.5 -2.4 11 16.1 W 20 26 11 14 1011.4 1009.4 0.0
16/06:00pm 32.7 26.7 -2.9 10 16.8 W 19 24 10 13 1010.9 1009.0 0.0
16/05:30pm 33.6 27.5 -2.2 10 17.2 W 20 28 11 15 1010.7 1008.8 0.0
16/05:00pm 34.1 27.1 -3.2 9 17.7 WNW 24 35 13 19 1010.6 1008.7 0.0
16/04:30pm 34.7 28.5 -2.8 9 18.0 W 20 28 11 15 1010.5 1008.6 0.0
16/04:00pm 33.7 29.0 -2.1 10 17.3 SSW 13 24 7 13 1010.4 1008.5 0.0
16/03:30pm 34.5 28.5 -2.9 9 17.9 W 19 28 10 15 1010.7 1008.8 0.0
16/03:00pm 34.5 29.3 -2.9 9 17.9 WSW 15 26 8 14 1010.7 1008.8 0.0
16/02:30pm 34.7 30.6 -2.8 9 18.0 WNW 9 20 5 11 1011.2 1009.2 0.0
16/02:00pm 35.1 30.7 -2.5 9 18.2 NW 11 19 6 10 1011.6 1009.6 0.0
16/01:30pm 33.2 28.8 -2.5 10 17.0 W 11 20 6 11 1012.1 1010.2 0.0
16/01:00pm 33.0 28.2 -2.6 10 17.0 SW 13 22 7 12 1012.5 1010.6 0.0
16/12:30pm 32.7 27.9 -2.9 10 16.8 W 13 17 7 9 1012.9 1011.0 0.0
16/12:00pm 32.3 27.4 -3.2 10 16.6 WNW 13 22 7 12 1013.6 1011.6 0.0
16/11:30am 31.6 26.4 -2.4 11 16.1 W 15 33 8 18 1014.1 1012.2 0.0
16/11:00am 30.9 25.7 -3.0 11 15.8 W 15 24 8 13 1014.6 1012.7 0.0
16/10:30am 30.4 25.3 -2.2 12 15.3 WSW 15 24 8 13 1014.9 1013.0 0.0
16/10:00am 29.2 25.1 -3.1 12 14.8 WSW 9 15 5 8 1015.2 1013.3 0.0
16/09:30am 27.5 23.6 -1.4 15 13.5 WSW 9 15 5 8 1015.4 1013.5 0.0
16/09:00am 26.6 23.2 -0.4 17 12.7 W 7 13 4 7 1015.7 1013.8 0.0
16/08:30am 25.8 23.0 -0.3 18 12.3 WSW 4 11 2 6 1015.6 1013.7 0.0
16/08:00am 24.1 20.9 -0.2 20 11.3 WNW 6 9 3 5 1015.4 1013.5 0.0
16/07:30am 22.2 19.9 0.7 24 10.0 N 2 7 1 4 1015.1 1013.2 0.0
16/07:00am 19.5 17.5 0.0 27 8.8 CALM 0 0 0 0 1014.7 1012.8 0.0
16/06:30am 16.5 13.2 -1.1 30 7.5 ENE 6 7 3 4 1014.3 1012.4 0.0
16/06:00am 16.3 13.1 -0.8 31 7.4 ENE 6 9 3 5 1014.0 1012.0 0.0
16/05:30am 17.6 15.6 -0.2 30 7.9 CALM 0 0 0 0 1013.8 1011.8 0.0
16/05:00am 17.8 15.9 0.5 31 7.8 CALM 0 0 0 0 1013.7 1011.7 0.0
16/04:30am 18.1 14.8 0.3 30 8.0 SSE 7 9 4 5 1013.4 1011.5 0.0
16/04:00am 19.0 17.1 0.6 29 8.4 CALM 0 0 0 0 1013.1 1011.2 0.0
16/03:30am 21.2 17.7 1.0 26 9.4 W 9 11 5 6 1013.1 1011.2 0.0
16/03:00am 21.6 19.5 1.8 27 9.4 SW 2 9 1 5 1013.0 1011.1 0.0
16/02:30am 22.8 18.6 1.8 25 10.0 WNW 13 15 7 8 1013.0 1011.1 0.0
16/02:00am 24.0 19.1 2.2 24 10.6 WNW 17 20 9 11 1013.2 1011.3 0.0
16/01:30am 24.5 19.6 2.0 23 10.9 WNW 17 20 9 11 1013.3 1011.4 0.0
16/01:00am 25.3 19.8 0.7 20 11.7 WNW 19 24 10 13 1013.4 1011.5 0.0
16/12:30am 25.6 20.7 -0.5 18 12.2 WNW 15 19 8 10 1013.6 1011.6 0.0
16/12:00am 26.4 21.4 -1.4 16 12.9 W 15 20 8 11 1013.6 1011.6 0.0
 
Date/Time
WST
Temp
°C
App
Temp
°C
Dew
Point
Rel
Hum
%
Delta-T
°C
Wind Press
QNH
hPa
Press
MSL
hPa
Rain
since 9 am
mm
Dir
 
Spd
km/h
Gust
km/h
Spd
kts
Gust
kts
15/11:30pm 24.5 20.5 -2.1 17 12.0 WSW 9 15 5 8 1013.6 1011.6 0.0
15/11:00pm 24.3 21.3 -1.5 18 11.7 SSW 4 7 2 4 1013.4 1011.5 0.0
15/10:30pm 27.7 23.6 -0.4 16 13.4 NNW 11 15 6 8 1013.6 1011.6 0.0
15/10:00pm 29.1 23.5 -3.2 12 14.8 NNW 17 19 9 10 1013.8 1011.8 0.0
15/09:30pm 28.4 24.2 -3.7 12 14.5 N 9 13 5 7 1013.9 1011.9 0.0
15/09:00pm 28.1 23.9 -3.9 12 14.4 WNW 9 15 5 8 1013.7 1011.7 0.0
15/08:30pm 29.8 25.9 -5.1 10 15.5 S 7 9 4 5 1013.3 1011.4 0.0
15/08:00pm 31.9 27.6 -4.9 9 16.7 SW 9 11 5 6 1013.2 1011.3 0.0
15/07:30pm 32.3 27.6 -4.6 9 16.9 W 11 15 6 8 1013.0 1011.1 0.0
15/07:00pm 33.3 28.6 -5.4 8 17.6 N 11 15 6 8 1012.6 1010.7 0.0
15/06:30pm 33.7 29.4 -5.1 8 17.8 NNW 9 13 5 7 1012.3 1010.4 0.0
15/06:00pm 34.6 29.4 -6.2 7 18.5 NNW 13 17 7 9 1011.9 1009.9 0.0
15/05:30pm 35.4 30.3 -5.6 7 18.9 N 13 24 7 13 1011.6 1009.6 0.0
15/05:00pm 36.0 30.9 -5.2 7 19.2 NNW 13 19 7 10 1011.5 1009.5 0.0
15/04:30pm 36.3 30.1 -5.0 7 19.4 NNW 19 28 10 15 1011.5 1009.5 0.0
15/04:00pm 36.9 30.9 -6.5 6 20.0 WSW 17 20 9 11 1011.5 1009.5 0.0
15/03:30pm 36.6 31.2 -4.7 7 19.5 NW 15 22 8 12 1011.6 1009.6 0.0
15/03:00pm 36.8 31.4 -4.6 7 19.6 NW 15 30 8 16 1011.8 1009.8 0.0
15/02:30pm 35.9 31.6 -5.2 7 19.1 E 9 19 5 10 1012.0 1010.1 0.0
15/02:00pm 35.7 31.0 -5.4 7 19.1 NNE 11 17 6 9 1012.4 1010.5 0.0
15/01:30pm 35.4 29.1 -5.6 7 18.9 NW 19 28 10 15 1012.8 1010.9 0.0
15/01:00pm 35.6 29.1 -5.5 7 19.0 NNW 20 30 11 16 1013.3 1011.4 0.0
15/12:30pm 34.7 28.5 -4.4 8 18.3 NNW 19 26 10 14 1013.9 1011.9 0.0
15/12:00pm 34.1 28.8 -3.2 9 17.7 E 15 24 8 13 1014.5 1012.6 0.0
15/11:30am 33.2 27.3 -2.5 10 17.0 NE 19 28 10 15 1015.1 1013.2 0.0
15/11:00am 32.8 27.2 -2.8 10 16.9 ENE 17 28 9 15 1015.6 1013.7 0.0
15/10:30am 31.6 25.6 -1.2 12 15.8 E 20 30 11 16 1016.2 1014.3 0.0
15/10:00am 30.6 23.9 -0.9 13 15.2 ENE 24 32 13 17 1016.5 1014.6 0.0
15/09:30am 28.7 22.1 -0.5 15 14.0 ENE 24 35 13 19 1016.6 1014.7 0.0
15/09:00am 28.3 21.6 -0.8 15 13.8 E 24 33 13 18 1016.7 1014.8 0.0
15/08:30am 27.0 20.4 -0.1 17 12.9 E 24 33 13 18 1016.9 1015.0 0.0
15/08:00am 26.1 20.5 0.0 18 12.4 E 19 26 10 14 1017.0 1015.1 0.0
15/07:30am 25.0 19.4 -0.2 19 11.8 ESE 19 22 10 12 1017.0 1015.1 0.0
15/07:00am 20.5 15.9 -1.3 23 9.6 ENE 13 20 7 11 1017.0 1015.1 0.0
15/06:56am 21.3 16.9 0.5 25 9.6 ENE 13 20 7 11 1017.0 1015.1 0.0
15/06:30am 15.9 11.5 -2.1 29 7.5 NE 11 13 6 7 1016.9 1015.0 0.0
15/06:00am 14.9 10.4 -3.4 28 7.3 NE 11 13 6 7 1016.7 1014.8 0.0
15/05:30am 15.3 11.9 -2.2 30 7.2 E 6 7 3 4 1016.6 1014.7 0.0
15/05:00am 15.3 11.2 -3.1 28 7.5 E 9 11 5 6 1016.5 1014.6 0.0
15/04:30am 15.5 12.1 -2.4 29 7.4 SE 6 7 3 4 1016.4 1014.5 0.0
15/04:00am 16.4 12.7 -2.6 27 7.9 WNW 7 9 4 5 1016.1 1014.1 0.0
15/03:30am 18.1 14.6 -1.7 26 8.5 NNW 7 9 4 5 1015.9 1014.0 0.0
15/03:00am 19.2 15.3 -1.3 25 9.0 NW 9 11 5 6 1015.9 1014.0 0.0
15/02:30am 19.3 14.6 -1.7 24 9.1 NNW 13 15 7 8 1016.1 1014.1 0.0
15/02:00am 20.8 18.7 -1.1 23 9.7 CALM 0 2 0 1 1016.1 1014.1 0.0
15/01:30am 20.6 16.4 -1.2 23 9.7 NNW 11 15 6 8 1016.2 1014.3 0.0
15/01:00am 23.0 19.5 -1.1 20 10.9 WSW 7 9 4 5 1016.3 1014.4 0.0
15/12:30am 20.1 16.6 -2.9 21 9.8 N 6 9 3 5 1016.5 1014.6 0.0
15/12:00am 21.8 17.4 -2.1 20 10.5 NW 11 11 6 6 1016.3 1014.4 0.0
 
Date/Time
WST
Temp
°C
App
Temp
°C
Dew
Point
Rel
Hum
%
Delta-T
°C
Wind Press
QNH
hPa
Press
MSL
hPa
Rain
since 9 am
mm
Dir
 
Spd
km/h
Gust
km/h
Spd
kts
Gust
kts
14/11:30pm 20.5 18.2 -2.5 21 9.9 CALM 0 0 0 0 1016.3 1014.4 0.0
14/11:00pm 21.2 18.5 -2.6 20 10.3 NW 2 6 1 3 1016.4 1014.5 0.0
14/10:30pm 22.2 18.5 -2.5 19 10.8 N 7 9 4 5 1016.2 1014.3 0.0
14/10:00pm 23.2 19.7 -3.2 17 11.5 E 6 7 3 4 1016.4 1014.5 0.0
14/09:30pm 23.1 20.7 -3.3 17 11.5 CALM 0 0 0 0 1016.4 1014.5 0.0
14/09:00pm 25.4 23.1 -2.2 16 12.5 CALM 0 0 0 0 1016.4 1014.5 0.0
14/08:30pm 27.8 24.2 -2.1 14 13.8 SSW 7 9 4 5 1016.3 1014.4 0.0
14/08:00pm 28.4 24.4 -2.6 13 14.3 S 9 11 5 6 1016.3 1014.4 0.0
14/07:30pm 29.1 24.7 -2.1 13 14.6 S 11 13 6 7 1016.1 1014.1 0.0
14/07:00pm 30.2 25.8 -2.3 12 15.2 SSW 11 15 6 8 1015.7 1013.8 0.0
14/06:30pm 30.8 26.3 -3.0 11 15.7 S 11 13 6 7 1015.4 1013.5 0.0
14/06:00pm 31.9 26.6 -3.5 10 16.5 S 15 19 8 10 1015.0 1013.1 0.0
14/05:30pm 32.8 27.6 -2.8 10 16.9 SSW 15 24 8 13 1014.9 1013.0 0.0
14/05:00pm 33.3 28.1 -2.4 10 17.1 S 15 19 8 10 1014.7 1012.8 0.0
14/04:30pm 33.8 28.9 -3.5 9 17.6 S 13 20 7 11 1014.4 1012.5 0.0
14/04:00pm 33.7 29.2 -3.5 9 17.5 SSE 11 17 6 9 1014.5 1012.6 0.0
14/03:30pm 33.9 29.0 -3.4 9 17.6 SE 13 22 7 12 1014.6 1012.7 0.0
14/03:00pm 34.4 29.5 -3.0 9 17.9 ESE 13 19 7 10 1014.9 1013.0 0.0
14/02:30pm 33.9 29.4 -3.4 9 17.6 SE 11 17 6 9 1015.0 1013.1 0.0
14/02:00pm 35.0 29.1 -2.6 9 18.1 ENE 19 26 10 14 1015.1 1013.2 0.0
14/01:30pm 33.9 29.0 -3.4 9 17.6 NNE 13 24 7 13 1015.5 1013.6 0.0
14/01:00pm 33.1 29.4 -2.6 10 17.0 ENE 7 19 4 10 1016.1 1014.1 0.0
14/12:30pm 32.2 27.1 -2.0 11 16.4 S 15 30 8 16 1016.7 1014.8 0.0
14/12:00pm 32.0 28.6 -2.1 11 16.2 SSW 6 11 3 6 1017.1 1015.2 0.0
14/11:30am 32.4 27.7 -1.8 11 16.4 S 13 20 7 11 1017.6 1015.7 0.0
14/11:00am 31.4 27.0 -2.6 11 16.0 E 11 20 6 11 1018.1 1016.2 0.0
14/10:30am 30.5 25.8 -2.1 12 15.4 E 13 20 7 11 1018.7 1016.8 0.0
14/10:00am 30.7 25.6 -1.9 12 15.4 E 15 24 8 13 1018.8 1016.9 0.0
14/09:30am 30.2 24.7 -2.3 12 15.2 ESE 17 24 9 13 1018.9 1017.0 0.0
14/09:00am 28.5 25.0 -1.6 14 14.1 ESE 7 11 4 6 1019.0 1017.1 0.0
14/08:30am 27.0 23.2 -0.9 16 13.1 NE 9 11 5 6 1018.9 1017.0 0.0
14/08:00am 24.6 22.5 -0.5 19 11.6 CALM 0 11 0 6 1018.8 1016.9 0.0
14/07:30am 21.6 18.5 0.2 24 9.8 NNE 6 7 3 4 1018.8 1016.9 0.0
14/07:00am 18.6 14.8 -0.7 27 8.5 NE 9 11 5 6 1018.7 1016.8 0.0
14/06:30am 14.8 10.8 -2.1 31 7.0 NE 9 11 5 6 1018.3 1016.5 0.0
14/06:00am 14.3 10.3 -2.2 32 6.7 ENE 9 11 5 6 1018.0 1016.1 0.0
14/05:30am 14.5 10.4 -2.8 30 7.0 ENE 9 11 5 6 1017.8 1015.9 0.0
14/05:00am 14.8 11.1 -2.6 30 7.1 ENE 7 9 4 5 1017.7 1015.8 0.0
14/04:30am 14.7 11.0 -3.1 29 7.2 ENE 7 9 4 5 1017.6 1015.7 0.0
14/04:00am 15.5 11.1 -2.4 29 7.4 NE 11 11 6 6 1017.6 1015.7 0.0
14/03:30am 15.9 11.9 -2.1 29 7.5 NE 9 13 5 7 1017.5 1015.6 0.0
14/03:00am 16.1 12.1 -1.9 29 7.5 NE 9 11 5 6 1017.5 1015.6 0.0
14/02:30am 16.5 13.0 -2.5 27 7.9 NNE 6 7 3 4 1017.7 1015.8 0.0
14/02:00am 17.1 13.4 -2.5 26 8.2 NNE 7 9 4 5 1017.8 1015.9 0.0
14/01:30am 17.9 15.6 -2.4 25 8.6 CALM 0 0 0 0 1017.8 1015.9 0.0
14/01:00am 18.6 16.4 -1.3 26 8.6 CALM 0 6 0 3 1017.9 1016.0 0.0
14/12:30am 19.3 15.9 -1.7 24 9.1 NW 6 7 3 4 1017.9 1016.0 0.0
14/12:00am 20.5 16.6 -1.3 23 9.6 WNW 9 13 5 7 1017.8 1015.9 0.0
 
Date/Time
WST
Temp
°C
App
Temp
°C
Dew
Point
Rel
Hum
%
Delta-T
°C
Wind Press
QNH
hPa
Press
MSL
hPa
Rain
since 9 am
mm
Dir
 
Spd
km/h
Gust
km/h
Spd
kts
Gust
kts
13/11:30pm 21.0 17.5 -1.5 22 10.0 NW 7 9 4 5 1017.7 1015.8 0.0
13/11:00pm 20.4 18.1 -2.6 21 9.9 CALM 0 0 0 0 1017.8 1015.9 0.0
13/10:30pm 23.1 19.6 -1.1 20 11.0 W 7 9 4 5 1017.8 1015.9 0.0
13/10:22pm 22.3 18.4 -1.7 20 10.7 W 9 11 5 6 1017.8 1015.9 0.0
13/10:04pm 22.2 19.6 -1.8 20 10.7 NNE 2 6 1 3 1017.9 1016.0 0.0
13/10:00pm 22.0 19.5 -1.3 21 10.4 NE 2 6 1 3 1018.0 1016.1 0.0
13/09:30pm 21.7 18.2 -2.9 19 10.7 N 6 9 3 5 1017.9 1016.0 0.0

Other Formats:

Comma delimited format used in spreadsheet applications
http://www.bom.gov.au/fwo/IDW60801/IDW60801.94316.axf

JavaScript Object Notation format (JSON) in row-major order
http://www.bom.gov.au/fwo/IDW60801/IDW60801.94316.json